createdAt,value
2022-08-09T00:00:25.137Z,2.80
2022-08-09T00:01:25.202Z,2.60
2022-08-09T00:02:25.836Z,2.50
2022-08-09T00:04:06.004Z,2.60
2022-08-09T00:04:34.760Z,2.90
2022-08-09T00:06:15.822Z,2.80
2022-08-09T00:06:25.074Z,2.80
2022-08-09T00:07:25.031Z,2.70
2022-08-09T00:08:32.372Z,2.60
2022-08-09T00:09:25.024Z,2.80
2022-08-09T00:10:24.993Z,2.70
2022-08-09T00:11:27.689Z,3.20
2022-08-09T00:12:25.005Z,3.00
2022-08-09T00:13:24.956Z,3.10
2022-08-09T00:14:36.514Z,3.00
2022-08-09T00:15:35.518Z,2.70
2022-08-09T00:16:26.350Z,3.10
2022-08-09T00:18:05.940Z,2.90
2022-08-09T00:18:24.884Z,2.90
2022-08-09T00:19:25.161Z,3.00
2022-08-09T00:20:24.856Z,2.90
2022-08-09T00:21:24.851Z,3.50
2022-08-09T00:22:24.830Z,3.10
2022-08-09T00:23:55.642Z,3.30
2022-08-09T00:24:24.803Z,3.10
2022-08-09T00:25:32.857Z,3.10
2022-08-09T00:26:32.543Z,3.20
2022-08-09T00:27:24.772Z,3.10
2022-08-09T00:28:27.204Z,3.30
2022-08-09T00:30:10.396Z,2.70
2022-08-09T00:30:30.390Z,3.30
2022-08-09T00:31:56.827Z,2.80
2022-08-09T00:32:27.004Z,3.00
2022-08-09T00:33:49.003Z,2.90
2022-08-09T00:34:24.710Z,2.80
2022-08-09T00:35:24.661Z,3.10
2022-08-09T00:36:29.630Z,3.40
2022-08-09T00:37:24.647Z,2.90
2022-08-09T00:38:24.611Z,3.00
2022-08-09T00:40:13.864Z,2.90
2022-08-09T00:40:31.000Z,2.80
2022-08-09T00:44:16.260Z,2.90
2022-08-09T00:44:30.728Z,2.90
2022-08-09T00:44:37.503Z,2.90
2022-08-09T00:45:36.648Z,3.00
2022-08-09T00:46:56.914Z,3.10
2022-08-09T00:47:39.830Z,3.10
2022-08-09T00:48:36.597Z,3.20
2022-08-09T00:49:38.457Z,3.40
2022-08-09T00:50:37.818Z,2.80
2022-08-09T00:51:47.049Z,3.20
2022-08-09T00:52:36.951Z,3.20
2022-08-09T00:53:36.545Z,3.00
2022-08-09T00:54:36.738Z,3.30
2022-08-09T00:56:05.073Z,3.20
2022-08-09T00:56:36.492Z,3.10
2022-08-09T00:57:36.472Z,3.10
2022-08-09T00:58:36.610Z,3.10
2022-08-09T00:59:41.610Z,3.10
2022-08-09T01:00:37.588Z,3.20
2022-08-09T01:01:44.325Z,3.20
2022-08-09T01:02:36.477Z,3.10
2022-08-09T01:03:40.681Z,3.10
2022-08-09T01:04:36.382Z,3.30
2022-08-09T01:05:53.412Z,3.40
2022-08-09T01:06:54.657Z,3.50
2022-08-09T01:07:38.139Z,3.60
2022-08-09T01:08:36.945Z,4.00
2022-08-09T01:09:36.727Z,3.10
2022-08-09T01:10:36.370Z,3.30
2022-08-09T01:11:36.291Z,3.40
2022-08-09T01:12:36.268Z,3.60
2022-08-09T01:13:53.458Z,3.50
2022-08-09T01:14:36.248Z,3.20
2022-08-09T01:15:37.261Z,3.30
2022-08-09T01:16:38.853Z,3.60
2022-08-09T01:17:37.317Z,3.40
2022-08-09T01:18:36.191Z,3.80
2022-08-09T01:19:43.086Z,3.20
2022-08-09T01:20:36.661Z,3.90
2022-08-09T01:21:41.156Z,3.80
2022-08-09T01:22:36.153Z,3.30
2022-08-09T01:24:02.678Z,3.80
2022-08-09T01:24:36.117Z,3.90
2022-08-09T01:25:41.566Z,3.90
2022-08-09T01:26:36.123Z,4.10
2022-08-09T01:27:36.062Z,3.50
2022-08-09T01:28:36.139Z,3.70
2022-08-09T01:29:41.265Z,3.60
2022-08-09T01:30:52.228Z,3.70
2022-08-09T01:32:29.526Z,3.30
2022-08-09T01:32:36.931Z,4.00
2022-08-09T01:33:36.028Z,3.50
2022-08-09T01:34:36.059Z,3.90
2022-08-09T01:35:38.452Z,3.80
2022-08-09T01:36:35.967Z,3.70
2022-08-09T01:38:00.712Z,3.90
2022-08-09T01:38:36.508Z,4.10
2022-08-09T01:39:35.994Z,3.90
2022-08-09T01:40:35.899Z,4.00
2022-08-09T01:41:36.861Z,4.10
2022-08-09T01:42:35.866Z,3.80
2022-08-09T01:43:50.577Z,3.80
2022-08-09T01:44:35.834Z,3.60
2022-08-09T01:45:35.809Z,4.30
2022-08-09T01:46:35.813Z,3.90
2022-08-09T01:47:44.780Z,3.90
2022-08-09T01:48:35.787Z,3.70
2022-08-09T01:49:39.232Z,3.90
2022-08-09T01:50:36.988Z,3.80
2022-08-09T01:51:35.775Z,3.90
2022-08-09T01:52:35.754Z,3.70
2022-08-09T01:53:41.623Z,3.80
2022-08-09T01:54:35.733Z,4.00
2022-08-09T01:55:35.726Z,4.20
2022-08-09T01:56:35.682Z,4.10
2022-08-09T01:57:39.843Z,3.90
2022-08-09T01:58:35.662Z,3.80
2022-08-09T01:59:50.849Z,3.80
2022-08-09T02:00:36.369Z,4.00
2022-08-09T02:01:59.576Z,4.20
2022-08-09T02:02:35.906Z,4.30
2022-08-09T02:03:35.837Z,4.30
2022-08-09T02:04:35.608Z,4.00
2022-08-09T02:05:53.498Z,4.10
2022-08-09T02:06:35.609Z,4.30
2022-08-09T02:08:38.807Z,4.70
2022-08-09T02:09:02.731Z,4.10
2022-08-09T02:09:42.729Z,4.60
2022-08-09T02:10:35.860Z,4.80
2022-08-09T02:11:42.467Z,4.40
2022-08-09T02:12:35.854Z,4.00
2022-08-09T02:13:40.118Z,3.80
2022-08-09T02:14:35.465Z,4.30
2022-08-09T02:15:49.617Z,4.20
2022-08-09T02:16:59.449Z,4.30
2022-08-09T02:18:01.166Z,4.30
2022-08-09T02:18:35.411Z,4.20
2022-08-09T02:19:39.049Z,5.10
2022-08-09T02:20:35.346Z,4.60
2022-08-09T02:21:35.316Z,4.60
2022-08-09T02:22:35.992Z,4.60
2022-08-09T02:23:42.733Z,4.30
2022-08-09T02:24:35.805Z,4.70
2022-08-09T02:25:42.589Z,4.20
2022-08-09T02:26:35.252Z,4.30
2022-08-09T02:27:57.504Z,4.50
2022-08-09T02:28:35.237Z,4.50
2022-08-09T02:29:35.314Z,4.80
2022-08-09T02:30:35.215Z,5.10
2022-08-09T02:31:36.180Z,4.50
2022-08-09T02:32:35.195Z,4.70
2022-08-09T02:33:38.397Z,4.90
2022-08-09T02:34:40.821Z,4.30
2022-08-09T02:36:01.823Z,4.50
2022-08-09T02:36:35.123Z,5.10
2022-08-09T02:37:36.619Z,4.80
2022-08-09T02:38:35.422Z,5.00
2022-08-09T02:39:42.021Z,4.80
2022-08-09T02:40:35.144Z,4.60
2022-08-09T02:41:35.041Z,5.10
2022-08-09T02:42:35.283Z,5.10
2022-08-09T02:43:42.391Z,5.00
2022-08-09T02:44:35.047Z,4.90
2022-08-09T02:45:35.070Z,4.80
2022-08-09T02:46:34.977Z,5.20
2022-08-09T02:47:57.442Z,5.50
2022-08-09T02:48:34.953Z,4.60
2022-08-09T02:49:38.746Z,5.00
2022-08-09T02:50:34.930Z,5.00
2022-08-09T02:51:39.991Z,5.30
2022-08-09T02:52:35.346Z,4.90
2022-08-09T02:53:34.885Z,5.50
2022-08-09T02:54:34.989Z,4.60
2022-08-09T02:55:46.823Z,5.50
2022-08-09T02:56:34.900Z,5.80
2022-08-09T02:57:59.708Z,4.90
2022-08-09T02:58:36.611Z,5.50
2022-08-09T02:59:36.414Z,5.80
2022-08-09T03:00:34.845Z,5.70
2022-08-09T03:02:05.745Z,5.50
2022-08-09T03:02:35.165Z,5.60
2022-08-09T03:04:05.777Z,5.30
2022-08-09T03:04:34.757Z,5.60
2022-08-09T03:05:35.033Z,5.70
2022-08-09T03:06:34.778Z,5.20
2022-08-09T03:07:34.681Z,5.80
2022-08-09T03:08:34.738Z,5.50
2022-08-09T03:09:34.738Z,5.80
2022-08-09T03:10:34.700Z,6.00
2022-08-09T03:12:10.573Z,5.80
2022-08-09T03:12:34.856Z,5.90
2022-08-09T03:13:44.024Z,5.90
2022-08-09T03:14:34.630Z,6.10
2022-08-09T03:15:40.688Z,5.60
2022-08-09T03:16:37.393Z,6.10
2022-08-09T03:17:34.555Z,5.90
2022-08-09T03:18:34.591Z,6.00
2022-08-09T03:19:52.699Z,6.60
2022-08-09T03:20:34.534Z,6.20
2022-08-09T03:21:36.523Z,6.40
2022-08-09T03:22:42.299Z,6.00
2022-08-09T03:23:34.486Z,6.30
2022-08-09T03:24:42.533Z,6.60
2022-08-09T03:26:03.240Z,6.30
2022-08-09T03:26:34.450Z,6.70
2022-08-09T03:27:44.754Z,6.50
2022-08-09T03:28:34.418Z,6.40
2022-08-09T03:29:35.784Z,6.50
2022-08-09T03:30:36.838Z,6.80
2022-08-09T03:31:34.385Z,6.40
2022-08-09T03:32:36.828Z,7.10
2022-08-09T03:33:52.964Z,6.80
2022-08-09T03:34:34.386Z,7.10
2022-08-09T03:36:11.160Z,7.60
2022-08-09T03:36:34.487Z,6.50
2022-08-09T03:37:54.681Z,7.00
2022-08-09T03:38:55.292Z,6.90
2022-08-09T03:39:38.076Z,7.00
2022-08-09T03:40:34.259Z,7.20
2022-08-09T03:41:45.990Z,7.50
2022-08-09T03:42:34.428Z,6.50
2022-08-09T03:43:34.311Z,7.50
2022-08-09T03:44:34.234Z,7.40
2022-08-09T03:46:13.592Z,7.40
2022-08-09T03:46:34.641Z,7.20
2022-08-09T03:47:36.681Z,8.40
2022-08-09T03:48:34.709Z,6.90
2022-08-09T03:49:35.878Z,7.30
2022-08-09T03:50:34.224Z,7.70
2022-08-09T03:51:55.924Z,7.40
2022-08-09T03:52:34.609Z,8.00
2022-08-09T03:53:37.658Z,7.50
2022-08-09T03:54:34.405Z,8.20
2022-08-09T03:55:36.198Z,7.80
2022-08-09T03:56:34.114Z,7.90
2022-08-09T03:57:34.047Z,7.30
2022-08-09T03:58:34.113Z,7.30
2022-08-09T03:59:53.061Z,7.70
2022-08-09T04:00:34.209Z,7.10
2022-08-09T04:01:34.033Z,8.30
2022-08-09T04:02:34.317Z,7.60
2022-08-09T04:03:46.454Z,8.00
2022-08-09T04:04:38.612Z,7.80
2022-08-09T04:05:40.406Z,8.00
2022-08-09T04:06:33.934Z,8.20
2022-08-09T04:07:52.404Z,8.70
2022-08-09T04:08:33.903Z,8.20
2022-08-09T04:09:41.966Z,7.70
2022-08-09T04:10:33.902Z,8.20
2022-08-09T04:11:33.924Z,7.80
2022-08-09T04:12:34.459Z,8.00
2022-08-09T04:13:44.899Z,8.10
2022-08-09T04:15:00.515Z,7.40
2022-08-09T04:15:42.588Z,7.60
2022-08-09T04:16:33.804Z,8.20
2022-08-09T04:17:33.924Z,7.90
2022-08-09T04:18:33.789Z,7.40
2022-08-09T04:19:51.018Z,8.60
2022-08-09T04:20:33.767Z,8.20
2022-08-09T04:21:36.355Z,7.80
2022-08-09T04:22:33.880Z,7.90
2022-08-09T04:23:33.693Z,7.70
2022-08-09T04:24:33.696Z,8.50
2022-08-09T04:25:33.690Z,7.80
2022-08-09T04:26:37.796Z,8.20
2022-08-09T04:27:33.664Z,6.90
2022-08-09T04:28:36.396Z,7.80
2022-08-09T04:29:33.618Z,8.10
2022-08-09T04:30:33.652Z,7.60
2022-08-09T04:31:37.671Z,8.40
2022-08-09T04:32:34.097Z,7.50
2022-08-09T04:33:33.634Z,8.00
2022-08-09T04:34:33.616Z,7.70
2022-08-09T04:35:33.572Z,7.70
2022-08-09T04:36:33.568Z,8.00
2022-08-09T04:37:45.092Z,8.50
2022-08-09T04:38:33.574Z,8.50
2022-08-09T04:39:33.519Z,8.30
2022-08-09T04:40:36.525Z,7.60
2022-08-09T04:41:43.412Z,7.60
2022-08-09T04:42:33.881Z,8.30
2022-08-09T04:43:35.821Z,7.80
2022-08-09T04:44:33.487Z,7.40
2022-08-09T04:45:36.115Z,7.40
2022-08-09T04:46:36.639Z,8.00
2022-08-09T04:47:58.720Z,7.70
2022-08-09T04:48:33.786Z,7.90
2022-08-09T04:49:54.781Z,8.50
2022-08-09T04:50:37.629Z,8.40
2022-08-09T04:51:33.452Z,8.30
2022-08-09T04:52:33.616Z,8.50
2022-08-09T04:53:33.309Z,7.80
2022-08-09T04:54:33.298Z,8.00
2022-08-09T04:55:39.059Z,7.80
2022-08-09T04:56:33.344Z,7.50
2022-08-09T04:57:53.957Z,7.60
2022-08-09T04:58:33.870Z,7.90
2022-08-09T04:59:33.259Z,8.60
2022-08-09T05:00:34.473Z,8.00
2022-08-09T05:01:33.284Z,8.00
2022-08-09T05:02:33.369Z,7.80
2022-08-09T05:03:42.512Z,7.90
2022-08-09T05:04:33.292Z,7.60
2022-08-09T05:05:51.760Z,7.60
2022-08-09T05:06:35.696Z,8.40
2022-08-09T05:07:33.146Z,8.10
2022-08-09T05:08:33.165Z,8.20
2022-08-09T05:09:49.380Z,7.40
2022-08-09T05:10:33.106Z,7.30
2022-08-09T05:11:35.895Z,8.30
2022-08-09T05:12:33.484Z,7.40
2022-08-09T05:13:33.921Z,7.70
2022-08-09T05:14:33.100Z,6.80
2022-08-09T05:15:39.298Z,7.00
2022-08-09T05:16:33.039Z,6.10
2022-08-09T05:18:55.366Z,6.80
2022-08-09T05:19:03.493Z,6.40
2022-08-09T05:19:45.941Z,6.80
2022-08-09T05:20:33.098Z,7.30
2022-08-09T05:21:46.429Z,6.90
2022-08-09T05:22:36.017Z,6.60
2022-08-09T05:24:01.325Z,6.60
2022-08-09T05:24:32.983Z,6.90
2022-08-09T05:25:32.940Z,7.10
2022-08-09T05:26:36.378Z,6.90
2022-08-09T05:27:32.912Z,7.30
2022-08-09T05:28:32.923Z,7.10
2022-08-09T05:29:35.406Z,6.90
2022-08-09T05:30:33.053Z,7.20
2022-08-09T05:31:37.090Z,7.00
2022-08-09T05:32:33.006Z,6.70
2022-08-09T05:33:33.295Z,7.00
2022-08-09T05:34:32.941Z,7.30
2022-08-09T05:35:33.137Z,7.40
2022-08-09T05:36:32.832Z,7.10
2022-08-09T05:37:47.481Z,7.10
2022-08-09T05:38:32.778Z,7.10
2022-08-09T05:39:36.119Z,7.40
2022-08-09T05:40:32.826Z,6.40
2022-08-09T05:41:32.752Z,7.00
2022-08-09T05:42:33.053Z,6.80
2022-08-09T05:43:32.819Z,7.00
2022-08-09T05:44:34.799Z,7.20
2022-08-09T05:45:32.643Z,6.80
2022-08-09T05:46:32.666Z,7.00
2022-08-09T05:47:33.113Z,6.60
2022-08-09T05:48:33.326Z,6.90
2022-08-09T05:49:33.879Z,6.90
2022-08-09T05:51:10.097Z,6.60
2022-08-09T05:51:43.154Z,6.90
2022-08-09T05:52:32.963Z,6.30
2022-08-09T05:53:34.012Z,6.40
2022-08-09T05:54:32.565Z,6.70
2022-08-09T05:55:32.584Z,7.10
2022-08-09T05:56:32.577Z,6.70
2022-08-09T05:57:51.006Z,6.60
2022-08-09T05:58:32.553Z,6.40
2022-08-09T05:59:32.510Z,6.60
2022-08-09T06:00:32.929Z,6.70
2022-08-09T06:01:34.095Z,6.40
2022-08-09T06:02:32.729Z,7.20
2022-08-09T06:03:43.690Z,5.80
2022-08-09T06:04:34.993Z,6.30
2022-08-09T06:05:57.519Z,5.90
2022-08-09T06:06:32.411Z,6.90
2022-08-09T06:07:32.490Z,6.20
2022-08-09T06:08:32.417Z,6.50
2022-08-09T06:09:55.201Z,6.10
2022-08-09T06:10:32.405Z,6.30
2022-08-09T06:11:40.609Z,5.80
2022-08-09T06:12:32.357Z,6.60
2022-08-09T06:13:33.618Z,6.00
2022-08-09T06:14:32.287Z,6.00
2022-08-09T06:15:32.351Z,5.90
2022-08-09T06:16:32.267Z,5.90
2022-08-09T06:17:40.230Z,5.70
2022-08-09T06:18:32.250Z,5.40
2022-08-09T06:19:32.217Z,5.50
2022-08-09T06:20:32.209Z,5.50
2022-08-09T06:21:32.234Z,5.10
2022-08-09T06:22:32.479Z,4.90
2022-08-09T06:23:55.170Z,5.50
2022-08-09T06:24:32.185Z,5.50
2022-08-09T06:25:32.142Z,5.20
2022-08-09T06:26:32.163Z,5.00
2022-08-09T06:27:42.542Z,5.30
2022-08-09T06:28:32.239Z,5.10
2022-08-09T06:29:32.066Z,5.40
2022-08-09T06:30:32.176Z,5.50
2022-08-09T06:31:39.239Z,5.40
2022-08-09T06:32:53.082Z,5.40
2022-08-09T06:33:41.022Z,5.20
2022-08-09T06:34:32.149Z,5.60
2022-08-09T06:35:35.798Z,5.60
2022-08-09T06:36:32.029Z,5.60
2022-08-09T06:37:32.037Z,5.40
2022-08-09T06:38:37.752Z,5.30
2022-08-09T06:39:49.238Z,5.00
2022-08-09T06:40:32.043Z,5.10
2022-08-09T06:41:39.752Z,5.30
2022-08-09T06:42:33.637Z,5.20
2022-08-09T06:43:34.181Z,4.90
2022-08-09T06:44:31.894Z,4.90
2022-08-09T06:46:08.062Z,5.60
2022-08-09T06:46:40.017Z,5.30
2022-08-09T06:47:41.821Z,5.10
2022-08-09T06:48:31.908Z,5.10
2022-08-09T06:50:11.381Z,5.20
2022-08-09T06:50:32.054Z,5.30
2022-08-09T06:51:31.776Z,5.50
2022-08-09T06:52:32.090Z,5.20
2022-08-09T06:53:33.172Z,4.70
2022-08-09T06:54:31.760Z,5.00
2022-08-09T06:55:31.750Z,5.10
2022-08-09T06:56:31.800Z,5.00
2022-08-09T06:58:02.165Z,4.90
2022-08-09T07:00:54.990Z,4.60
2022-08-09T07:01:02.879Z,5.20
2022-08-09T07:01:08.978Z,4.30
2022-08-09T07:02:08.989Z,4.10
2022-08-09T07:03:08.892Z,4.40
2022-08-09T07:04:10.460Z,4.20
2022-08-09T07:05:08.882Z,3.80
2022-08-09T07:06:08.921Z,4.10
2022-08-09T07:07:11.888Z,4.30
2022-08-09T07:08:08.862Z,4.00
2022-08-09T07:09:53.042Z,3.90
2022-08-09T07:10:22.298Z,3.90
2022-08-09T07:11:12.298Z,4.30
2022-08-09T07:12:13.621Z,4.50
2022-08-09T07:13:27.646Z,3.80
2022-08-09T07:14:08.874Z,4.10
2022-08-09T07:16:36.310Z,4.30
2022-08-09T07:16:49.805Z,4.20
2022-08-09T07:17:08.730Z,3.70
2022-08-09T07:18:10.241Z,3.40
2022-08-09T07:19:08.823Z,3.60
2022-08-09T07:20:08.684Z,3.90
2022-08-09T07:21:08.720Z,3.80
2022-08-09T07:22:08.645Z,3.40
2022-08-09T07:23:18.118Z,3.70
2022-08-09T07:24:08.649Z,3.60
2022-08-09T07:25:09.685Z,3.90
2022-08-09T07:26:08.593Z,3.90
2022-08-09T07:27:10.945Z,3.60
2022-08-09T07:28:08.562Z,3.40
2022-08-09T07:29:13.303Z,3.50
2022-08-09T07:30:08.549Z,3.60
2022-08-09T07:31:08.629Z,3.50
2022-08-09T07:32:08.563Z,3.60
2022-08-09T07:33:12.448Z,3.20
2022-08-09T07:34:08.511Z,3.70
2022-08-09T07:35:11.489Z,3.60
2022-08-09T07:36:08.464Z,3.70
2022-08-09T07:37:10.921Z,3.20
2022-08-09T07:38:08.432Z,3.20
2022-08-09T07:39:11.638Z,3.20
2022-08-09T07:40:08.479Z,3.50
2022-08-09T07:41:12.069Z,3.10
2022-08-09T07:42:08.405Z,3.30
2022-08-09T07:43:16.524Z,3.40
2022-08-09T07:44:08.384Z,3.40
2022-08-09T07:45:22.723Z,3.30
2022-08-09T07:46:08.419Z,3.40
2022-08-09T07:47:08.306Z,3.60
2022-08-09T07:48:08.296Z,3.40
2022-08-09T07:49:08.396Z,3.50
2022-08-09T07:50:09.438Z,3.10
2022-08-09T07:52:02.583Z,3.00
2022-08-09T07:52:17.159Z,3.60
2022-08-09T07:53:08.238Z,3.60
2022-08-09T07:54:08.620Z,3.70
2022-08-09T07:55:09.123Z,3.20
2022-08-09T07:56:08.251Z,3.40
2022-08-09T07:57:11.771Z,3.00
2022-08-09T07:58:13.247Z,3.10
2022-08-09T07:59:14.145Z,3.50
2022-08-09T08:00:08.868Z,3.20
2022-08-09T08:01:11.357Z,3.20
2022-08-09T08:02:08.937Z,3.20
2022-08-09T08:03:08.674Z,3.10
2022-08-09T08:04:10.433Z,3.10
2022-08-09T08:05:17.952Z,2.90
2022-08-09T08:06:08.101Z,3.20
2022-08-09T08:07:15.013Z,2.90
2022-08-09T08:09:01.275Z,3.10
2022-08-09T08:09:18.350Z,3.00
2022-08-09T08:10:10.873Z,2.80
2022-08-09T08:12:10.349Z,3.10
2022-08-09T08:12:29.544Z,2.90
2022-08-09T08:13:10.393Z,3.40
2022-08-09T08:14:07.944Z,2.90
2022-08-09T08:15:07.965Z,3.20
2022-08-09T08:16:07.967Z,2.70
2022-08-09T08:17:08.931Z,3.20
2022-08-09T08:18:07.890Z,2.80
2022-08-09T08:19:07.993Z,2.70
2022-08-09T08:20:12.911Z,3.10
2022-08-09T08:21:08.026Z,2.80
2022-08-09T08:22:08.127Z,3.30
2022-08-09T08:23:16.951Z,3.10
2022-08-09T08:24:11.969Z,3.70
2022-08-09T08:25:13.261Z,3.30
2022-08-09T08:26:08.323Z,3.30
2022-08-09T08:27:16.638Z,2.70
2022-08-09T08:28:07.850Z,2.90
2022-08-09T08:29:07.767Z,3.10
2022-08-09T08:30:07.779Z,3.00
2022-08-09T08:31:10.602Z,2.90
2022-08-09T08:32:07.735Z,2.90
2022-08-09T08:33:07.701Z,3.40
2022-08-09T08:34:07.690Z,3.20
2022-08-09T08:35:07.683Z,3.10
2022-08-09T08:36:07.650Z,3.20
2022-08-09T08:37:07.652Z,3.10
2022-08-09T08:38:11.421Z,2.90
2022-08-09T08:39:10.623Z,3.20
2022-08-09T08:40:07.843Z,2.50
2022-08-09T08:41:07.586Z,2.80
2022-08-09T08:42:07.640Z,2.70
2022-08-09T08:43:13.205Z,2.90
2022-08-09T08:44:07.569Z,2.90
2022-08-09T08:45:11.861Z,2.40
2022-08-09T08:46:31.741Z,2.60
2022-08-09T08:47:13.205Z,2.90
2022-08-09T08:48:10.135Z,2.90
2022-08-09T08:49:07.475Z,2.80
2022-08-09T08:50:07.469Z,2.50
2022-08-09T08:51:07.459Z,2.80
2022-08-09T08:52:10.067Z,3.00
2022-08-09T08:53:15.702Z,2.60
2022-08-09T08:54:07.417Z,2.40
2022-08-09T08:55:07.533Z,2.90
2022-08-09T08:56:07.439Z,2.90
2022-08-09T08:57:11.353Z,2.70
2022-08-09T08:58:07.371Z,2.90
2022-08-09T08:59:07.954Z,2.80
2022-08-09T09:00:08.011Z,2.90
2022-08-09T09:01:08.958Z,2.90
2022-08-09T09:02:07.521Z,2.90
2022-08-09T09:03:12.070Z,2.80
2022-08-09T09:04:07.450Z,2.50
2022-08-09T09:05:11.959Z,2.90
2022-08-09T09:06:07.289Z,2.60
2022-08-09T09:07:07.937Z,2.90
2022-08-09T09:08:07.235Z,2.80
2022-08-09T09:09:21.327Z,2.50
2022-08-09T09:10:09.035Z,2.50
2022-08-09T09:11:07.200Z,2.90
2022-08-09T09:12:16.454Z,2.80
2022-08-09T09:13:09.514Z,2.90
2022-08-09T09:14:07.198Z,2.50
2022-08-09T09:15:08.135Z,2.50
2022-08-09T09:16:07.224Z,2.70
2022-08-09T09:17:16.384Z,2.40
2022-08-09T09:18:07.111Z,2.40
2022-08-09T09:19:40.089Z,2.60
2022-08-09T09:20:07.090Z,2.60
2022-08-09T09:21:07.159Z,2.70
2022-08-09T09:22:07.883Z,2.80
2022-08-09T09:23:07.145Z,2.60
2022-08-09T09:24:14.296Z,2.50
2022-08-09T09:26:05.096Z,2.30
2022-08-09T09:26:16.834Z,2.70
2022-08-09T09:28:04.986Z,2.50
2022-08-09T09:28:11.773Z,2.50
2022-08-09T09:29:11.013Z,2.70
2022-08-09T09:30:14.129Z,2.90
2022-08-09T09:31:07.078Z,2.60
2022-08-09T09:32:15.087Z,2.40
2022-08-09T09:33:13.721Z,2.50
2022-08-09T09:34:07.041Z,2.50
2022-08-09T09:35:09.179Z,2.40
2022-08-09T09:36:19.828Z,2.20
2022-08-09T09:37:06.852Z,2.50
2022-08-09T09:38:06.855Z,2.80
2022-08-09T09:39:06.856Z,2.60
2022-08-09T09:40:27.912Z,2.40
2022-08-09T09:44:12.706Z,2.50
2022-08-09T09:45:06.870Z,2.40
2022-08-09T09:49:13.608Z,2.40
2022-08-09T09:50:15.935Z,2.20
2022-08-09T09:54:14.226Z,2.80
2022-08-09T10:15:51.099Z,2.10
2022-08-09T10:22:33.341Z,2.30
2022-08-09T10:40:50.027Z,2.10
2022-08-09T10:41:49.480Z,2.00
2022-08-09T10:42:48.177Z,2.20
2022-08-09T10:43:59.500Z,2.10
2022-08-09T10:44:48.122Z,2.30
2022-08-09T10:45:58.342Z,2.20
2022-08-09T10:46:55.782Z,2.30
2022-08-09T10:48:20.379Z,2.10
2022-08-09T10:48:48.061Z,2.10
2022-08-09T10:49:51.378Z,2.20
2022-08-09T10:50:48.074Z,2.20
2022-08-09T10:51:48.094Z,2.40
2022-08-09T10:52:48.101Z,2.10
2022-08-09T10:53:54.613Z,2.10
2022-08-09T10:54:48.016Z,1.90
2022-08-09T10:55:57.860Z,2.50
2022-08-09T10:56:47.958Z,2.10
2022-08-09T10:57:51.724Z,2.40
2022-08-09T10:58:49.468Z,2.20
2022-08-09T10:59:58.114Z,2.40
2022-08-09T11:01:10.761Z,2.40
2022-08-09T11:03:28.009Z,2.20
2022-08-09T11:03:57.242Z,2.10
2022-08-09T11:04:29.783Z,2.40
2022-08-09T11:05:30.529Z,2.00
2022-08-09T11:06:27.552Z,2.20
2022-08-09T11:07:27.531Z,2.40
2022-08-09T11:08:33.209Z,2.20
2022-08-09T11:09:27.492Z,2.20
2022-08-09T11:10:27.504Z,2.30
2022-08-09T11:11:27.504Z,2.20
2022-08-09T11:12:29.772Z,2.30
2022-08-09T11:13:49.891Z,2.30
2022-08-09T11:14:28.035Z,2.20
2022-08-09T11:15:33.725Z,2.00
2022-08-09T11:16:34.942Z,2.20
2022-08-09T11:17:27.474Z,2.10
2022-08-09T11:18:27.427Z,2.20
2022-08-09T11:20:11.650Z,2.10
2022-08-09T11:20:27.408Z,2.30
2022-08-09T11:21:27.334Z,2.40
2022-08-09T11:22:27.328Z,2.20
2022-08-09T11:23:30.230Z,2.20
2022-08-09T11:24:27.335Z,2.10
2022-08-09T11:25:44.680Z,2.00
2022-08-09T11:26:27.368Z,2.30
2022-08-09T11:28:04.791Z,2.40
2022-08-09T11:28:30.679Z,2.20
2022-08-09T11:30:05.143Z,2.30
2022-08-09T11:30:32.550Z,1.90
2022-08-09T11:31:36.373Z,2.00
2022-08-09T11:32:27.272Z,2.20
2022-08-09T11:36:38.399Z,2.00
2022-08-09T11:42:48.455Z,2.30
2022-08-09T11:43:47.254Z,2.40
2022-08-09T11:44:47.243Z,2.10
2022-08-09T11:58:02.102Z,2.40
2022-08-09T11:58:54.288Z,2.80
2022-08-09T12:16:37.334Z,2.10
2022-08-09T12:17:27.661Z,2.10
2022-08-09T12:18:13.476Z,1.80
2022-08-09T12:19:13.476Z,2.40
2022-08-09T12:41:09.762Z,2.10
2022-08-09T12:49:38.793Z,2.60
2022-08-09T12:50:39.786Z,2.50
2022-08-09T12:51:52.663Z,2.20
2022-08-09T12:59:23.433Z,2.10
2022-08-09T13:00:12.042Z,2.00
2022-08-09T13:01:09.935Z,2.10
2022-08-09T13:02:09.924Z,2.10
2022-08-09T13:03:24.440Z,2.10
2022-08-09T13:18:02.925Z,2.00
2022-08-09T13:18:27.165Z,2.00
2022-08-09T13:19:22.863Z,2.10
2022-08-09T13:33:06.216Z,2.50
2022-08-09T13:35:34.563Z,2.60
2022-08-09T13:53:22.120Z,2.10
2022-08-09T13:54:41.666Z,2.00
2022-08-09T13:55:21.918Z,2.10
2022-08-09T13:56:23.009Z,2.20
2022-08-09T13:57:36.521Z,2.00
2022-08-09T13:58:21.850Z,2.00
2022-08-09T14:00:52.525Z,2.30
2022-08-09T14:01:56.564Z,2.10
2022-08-09T14:02:42.710Z,1.90
2022-08-09T14:04:03.769Z,2.20
2022-08-09T14:04:34.255Z,2.20
2022-08-09T14:06:02.062Z,1.90
2022-08-09T14:06:36.922Z,2.00
2022-08-09T14:07:42.065Z,2.00
2022-08-09T14:08:34.081Z,2.50
2022-08-09T14:10:50.635Z,2.50
2022-08-09T14:30:36.255Z,1.90
2022-08-09T14:30:59.139Z,2.00
2022-08-09T14:31:52.160Z,1.90
2022-08-09T14:32:43.184Z,1.90
2022-08-09T14:33:42.962Z,2.00
2022-08-09T14:34:42.982Z,2.00
2022-08-09T14:35:52.875Z,2.10
2022-08-09T14:36:43.114Z,1.90
2022-08-09T14:38:02.711Z,2.00
2022-08-09T14:38:42.928Z,1.90
2022-08-09T14:39:47.769Z,1.90
2022-08-09T14:41:01.786Z,1.80
2022-08-09T14:41:42.904Z,1.90
2022-08-09T14:42:43.150Z,2.00
2022-08-09T14:43:47.590Z,1.90
2022-08-09T14:44:59.112Z,1.80
2022-08-09T14:46:58.275Z,2.10
2022-08-09T14:47:27.509Z,2.10
2022-08-09T14:47:57.463Z,1.60
2022-08-09T14:48:42.747Z,2.00
2022-08-09T14:50:01.572Z,2.30
2022-08-09T14:50:42.784Z,1.90
2022-08-09T14:51:42.865Z,1.80
2022-08-09T14:52:42.731Z,1.80
2022-08-09T14:53:48.246Z,2.00
2022-08-09T14:54:42.741Z,1.90
2022-08-09T14:55:50.063Z,2.10
2022-08-09T14:56:57.483Z,1.80
2022-08-09T14:57:43.799Z,1.70
2022-08-09T14:58:44.018Z,2.00
2022-08-09T14:59:46.744Z,1.70
2022-08-09T15:00:48.550Z,1.80
2022-08-09T15:01:42.658Z,1.90
2022-08-09T15:02:42.591Z,2.00
2022-08-09T15:03:42.621Z,1.70
2022-08-09T15:04:42.554Z,1.80
2022-08-09T15:05:50.311Z,1.60
2022-08-09T15:06:42.533Z,1.60
2022-08-09T15:07:43.729Z,1.80
2022-08-09T15:08:42.491Z,1.70
2022-08-09T15:10:07.604Z,1.70
2022-08-09T15:10:42.540Z,2.00
2022-08-09T15:11:45.490Z,1.90
2022-08-09T15:12:44.931Z,1.70
2022-08-09T15:13:56.320Z,1.80
2022-08-09T15:14:42.458Z,1.70
2022-08-09T15:15:43.789Z,1.70
2022-08-09T15:16:42.372Z,1.70
2022-08-09T15:17:47.267Z,1.70
2022-08-09T15:18:42.366Z,1.70
2022-08-09T15:19:54.464Z,2.00
2022-08-09T15:21:55.796Z,1.80
2022-08-09T15:22:06.575Z,1.70
2022-08-09T15:22:47.164Z,1.90
2022-08-09T15:24:01.527Z,1.90
2022-08-09T15:24:42.323Z,1.90
2022-08-09T15:25:42.330Z,1.70
2022-08-09T15:26:45.148Z,1.80
2022-08-09T15:27:48.123Z,1.80
2022-08-09T15:28:42.348Z,1.80
2022-08-09T15:30:57.790Z,2.00
2022-08-09T15:31:17.871Z,1.70
2022-08-09T15:31:42.491Z,1.90
2022-08-09T15:32:42.464Z,1.80
2022-08-09T15:34:33.265Z,1.80
2022-08-09T15:34:42.197Z,1.80
2022-08-09T15:35:44.820Z,2.00
2022-08-09T15:36:48.178Z,1.70
2022-08-09T15:37:56.845Z,1.90
2022-08-09T15:38:42.238Z,2.00
2022-08-09T15:39:53.743Z,1.80
2022-08-09T15:40:43.943Z,2.00
2022-08-09T15:44:59.942Z,1.90
2022-08-09T15:46:32.079Z,2.00
2022-08-09T15:47:01.035Z,1.80
2022-08-09T15:48:05.265Z,1.60
2022-08-09T15:49:20.962Z,1.90
2022-08-09T15:50:04.773Z,1.70
2022-08-09T15:51:00.909Z,1.80
2022-08-09T15:52:05.538Z,1.90
2022-08-09T15:53:06.292Z,2.10
2022-08-09T15:54:06.927Z,2.40
2022-08-09T15:55:00.824Z,1.80
2022-08-09T15:57:00.868Z,1.60
2022-08-09T15:58:01.552Z,2.00
2022-08-09T15:59:00.753Z,1.80
2022-08-09T16:00:00.738Z,1.70
2022-08-09T16:01:00.846Z,1.60
2022-08-09T16:02:00.754Z,1.30
2022-08-09T16:03:00.705Z,1.80
2022-08-09T16:04:00.692Z,1.70
2022-08-09T16:05:02.423Z,1.50
2022-08-09T16:06:02.943Z,1.60
2022-08-09T16:07:01.906Z,1.70
2022-08-09T16:08:00.681Z,2.20
2022-08-09T16:09:01.118Z,1.50
2022-08-09T16:10:04.958Z,1.80
2022-08-09T16:11:01.624Z,2.00
2022-08-09T16:12:00.575Z,1.70
2022-08-09T16:13:00.583Z,1.90
2022-08-09T16:14:05.014Z,1.50
2022-08-09T16:15:00.545Z,1.60
2022-08-09T16:16:04.420Z,1.60
2022-08-09T16:17:00.558Z,1.80
2022-08-09T16:18:00.532Z,1.80
2022-08-09T16:19:00.546Z,1.70
2022-08-09T16:20:05.073Z,1.50
2022-08-09T16:21:00.468Z,1.80
2022-08-09T16:22:00.457Z,1.70
2022-08-09T16:23:01.161Z,1.70
2022-08-09T16:24:02.354Z,1.80
2022-08-09T16:25:01.491Z,1.80
2022-08-09T16:26:02.711Z,1.80
2022-08-09T16:27:00.480Z,1.60
2022-08-09T16:28:00.406Z,1.60
2022-08-09T16:29:00.407Z,1.80
2022-08-09T16:30:02.295Z,1.60
2022-08-09T16:31:00.344Z,1.80
2022-08-09T16:32:18.885Z,1.40
2022-08-09T16:33:00.329Z,1.50
2022-08-09T16:34:02.601Z,1.70